sensor_id;sensor_type;location;lat;lon;timestamp;pressure;altitude;pressure_sealevel;temperature;humidity
12801;BME280;6464;42.494;27.470;2022-08-14T04:06:22;100221.28;;;21.00;100.00
12801;BME280;6464;42.494;27.470;2022-08-14T04:15:41;100355.03;;;21.94;100.00
12801;BME280;6464;42.494;27.470;2022-08-14T04:18:56;100379.31;;;22.05;100.00
12801;BME280;6464;42.494;27.470;2022-08-14T05:03:35;100408.44;;;22.61;100.00
12801;BME280;6464;42.494;27.470;2022-08-14T05:06:11;100403.69;;;22.64;100.00
12801;BME280;6464;42.494;27.470;2022-08-14T05:08:39;100394.59;;;22.54;100.00
12801;BME280;6464;42.494;27.470;2022-08-14T05:11:12;100353.97;;;22.46;100.00
12801;BME280;6464;42.494;27.470;2022-08-14T05:13:46;100328.56;;;22.39;100.00
12801;BME280;6464;42.494;27.470;2022-08-14T05:19:27;100290.81;;;22.16;100.00
12801;BME280;6464;42.494;27.470;2022-08-14T05:21:58;100380.38;;;22.89;100.00
12801;BME280;6464;42.494;27.470;2022-08-14T05:24:28;100317.69;;;22.64;100.00
12801;BME280;6464;42.494;27.470;2022-08-14T05:26:55;100380.47;;;23.11;100.00
12801;BME280;6464;42.494;27.470;2022-08-14T05:29:22;100465.53;;;23.60;100.00
12801;BME280;6464;42.494;27.470;2022-08-14T05:31:49;100425.59;;;23.07;100.00
12801;BME280;6464;42.494;27.470;2022-08-14T05:34:18;100428.00;;;23.34;100.00
12801;BME280;6464;42.494;27.470;2022-08-14T05:36:48;100494.00;;;23.87;100.00
12801;BME280;6464;42.494;27.470;2022-08-14T05:39:21;100513.00;;;23.96;100.00
12801;BME280;6464;42.494;27.470;2022-08-14T05:41:48;100499.91;;;23.92;100.00
12801;BME280;6464;42.494;27.470;2022-08-14T05:44:17;100469.41;;;23.80;100.00
12801;BME280;6464;42.494;27.470;2022-08-14T05:46:45;100473.84;;;24.03;100.00
12801;BME280;6464;42.494;27.470;2022-08-14T05:49:12;100544.06;;;24.35;100.00
12801;BME280;6464;42.494;27.470;2022-08-14T05:51:39;100550.44;;;24.34;100.00
12801;BME280;6464;42.494;27.470;2022-08-14T05:54:08;100528.78;;;24.36;100.00
12801;BME280;6464;42.494;27.470;2022-08-14T05:56:35;100552.69;;;24.63;100.00
12801;BME280;6464;42.494;27.470;2022-08-14T05:59:02;100539.56;;;24.47;100.00
12801;BME280;6464;42.494;27.470;2022-08-14T06:01:29;100481.53;;;23.97;100.00
12801;BME280;6464;42.494;27.470;2022-08-14T06:03:57;100484.38;;;23.95;100.00
12801;BME280;6464;42.494;27.470;2022-08-14T06:06:24;100525.13;;;24.48;100.00
12801;BME280;6464;42.494;27.470;2022-08-14T06:08:51;100532.94;;;24.51;100.00
12801;BME280;6464;42.494;27.470;2022-08-14T06:11:19;100518.88;;;24.48;100.00
12801;BME280;6464;42.494;27.470;2022-08-14T06:13:47;100542.28;;;24.81;100.00
12801;BME280;6464;42.494;27.470;2022-08-14T06:16:14;100531.69;;;25.00;100.00
12801;BME280;6464;42.494;27.470;2022-08-14T06:18:42;100517.59;;;24.97;100.00
12801;BME280;6464;42.494;27.470;2022-08-14T06:21:11;100548.13;;;24.75;100.00
12801;BME280;6464;42.494;27.470;2022-08-14T06:23:40;100548.28;;;24.62;100.00
12801;BME280;6464;42.494;27.470;2022-08-14T06:26:11;100535.16;;;24.57;100.00
12801;BME280;6464;42.494;27.470;2022-08-14T06:40:37;100515.06;;;24.61;100.00
12801;BME280;6464;42.494;27.470;2022-08-14T06:43:40;100527.44;;;24.53;100.00
12801;BME280;6464;42.494;27.470;2022-08-14T06:46:18;100577.44;;;25.13;100.00
12801;BME280;6464;42.494;27.470;2022-08-14T06:48:47;100499.84;;;24.72;100.00
12801;BME280;6464;42.494;27.470;2022-08-14T06:51:15;100607.53;;;25.52;100.00
12801;BME280;6464;42.494;27.470;2022-08-14T06:53:42;100643.78;;;25.93;100.00
12801;BME280;6464;42.494;27.470;2022-08-14T06:56:12;100604.13;;;25.50;100.00
12801;BME280;6464;42.494;27.470;2022-08-14T06:58:39;100628.41;;;25.50;100.00
12801;BME280;6464;42.494;27.470;2022-08-14T07:01:07;100651.44;;;25.65;100.00
12801;BME280;6464;42.494;27.470;2022-08-14T07:03:51;100723.13;;;26.24;100.00
12801;BME280;6464;42.494;27.470;2022-08-14T07:06:35;100735.53;;;26.26;100.00
12801;BME280;6464;42.494;27.470;2022-08-14T07:09:02;100708.97;;;26.31;100.00
12801;BME280;6464;42.494;27.470;2022-08-14T07:11:32;100719.16;;;26.07;100.00
12801;BME280;6464;42.494;27.470;2022-08-14T07:13:59;100664.81;;;25.67;100.00
12801;BME280;6464;42.494;27.470;2022-08-14T07:16:27;100730.44;;;26.12;100.00
12801;BME280;6464;42.494;27.470;2022-08-14T07:18:54;100683.75;;;25.78;100.00
12801;BME280;6464;42.494;27.470;2022-08-14T07:21:23;100734.72;;;26.14;100.00
12801;BME280;6464;42.494;27.470;2022-08-14T07:23:53;100714.88;;;26.25;100.00
12801;BME280;6464;42.494;27.470;2022-08-14T07:26:20;100744.38;;;26.60;100.00
12801;BME280;6464;42.494;27.470;2022-08-14T07:28:48;100672.47;;;26.05;100.00
12801;BME280;6464;42.494;27.470;2022-08-14T07:31:15;100687.72;;;25.95;100.00
12801;BME280;6464;42.494;27.470;2022-08-14T07:33:44;100686.44;;;26.10;100.00
12801;BME280;6464;42.494;27.470;2022-08-14T07:36:14;100727.94;;;26.73;100.00
12801;BME280;6464;42.494;27.470;2022-08-14T07:38:41;100646.59;;;26.23;100.00
12801;BME280;6464;42.494;27.470;2022-08-14T07:41:10;100747.16;;;27.12;100.00
12801;BME280;6464;42.494;27.470;2022-08-14T07:43:37;100697.22;;;26.74;100.00
12801;BME280;6464;42.494;27.470;2022-08-14T07:46:06;100722.78;;;26.91;100.00
12801;BME280;6464;42.494;27.470;2022-08-14T07:48:37;100756.31;;;27.41;100.00
12801;BME280;6464;42.494;27.470;2022-08-14T07:51:05;100715.59;;;27.32;100.00
12801;BME280;6464;42.494;27.470;2022-08-14T07:53:33;100756.63;;;27.58;100.00
12801;BME280;6464;42.494;27.470;2022-08-14T07:56:00;100716.31;;;26.82;100.00
12801;BME280;6464;42.494;27.470;2022-08-14T07:58:27;100757.78;;;27.25;100.00
12801;BME280;6464;42.494;27.470;2022-08-14T08:00:55;100744.91;;;27.17;100.00
12801;BME280;6464;42.494;27.470;2022-08-14T08:03:24;100743.97;;;27.07;100.00
12801;BME280;6464;42.494;27.470;2022-08-14T08:05:51;100674.75;;;26.83;100.00
12801;BME280;6464;42.494;27.470;2022-08-14T08:08:19;100722.31;;;27.07;100.00
12801;BME280;6464;42.494;27.470;2022-08-14T08:10:47;100739.78;;;27.14;100.00
12801;BME280;6464;42.494;27.470;2022-08-14T08:13:15;100665.94;;;26.60;100.00
12801;BME280;6464;42.494;27.470;2022-08-14T08:15:45;100709.00;;;27.15;100.00
12801;BME280;6464;42.494;27.470;2022-08-14T08:18:14;100687.53;;;27.02;100.00
12801;BME280;6464;42.494;27.470;2022-08-14T08:20:44;100723.31;;;27.36;100.00
12801;BME280;6464;42.494;27.470;2022-08-14T08:23:12;100745.94;;;27.56;100.00
12801;BME280;6464;42.494;27.470;2022-08-14T08:25:41;100744.44;;;27.73;100.00
12801;BME280;6464;42.494;27.470;2022-08-14T08:28:10;100684.53;;;27.26;100.00
12801;BME280;6464;42.494;27.470;2022-08-14T08:30:40;100728.28;;;27.62;100.00
12801;BME280;6464;42.494;27.470;2022-08-14T08:33:08;100719.00;;;28.05;100.00
12801;BME280;6464;42.494;27.470;2022-08-14T08:35:36;100710.88;;;28.24;100.00
12801;BME280;6464;42.494;27.470;2022-08-14T08:38:06;100719.03;;;28.43;100.00
12801;BME280;6464;42.494;27.470;2022-08-14T08:40:35;100724.66;;;28.89;100.00
12801;BME280;6464;42.494;27.470;2022-08-14T08:43:04;100704.56;;;28.72;100.00
12801;BME280;6464;42.494;27.470;2022-08-14T08:45:33;100651.63;;;28.49;100.00
12801;BME280;6464;42.494;27.470;2022-08-14T08:48:01;100711.31;;;29.15;100.00
12801;BME280;6464;42.494;27.470;2022-08-14T08:50:31;100718.00;;;29.30;100.00
12801;BME280;6464;42.494;27.470;2022-08-14T08:52:59;100659.22;;;28.92;100.00
12801;BME280;6464;42.494;27.470;2022-08-14T08:55:31;100706.06;;;29.41;100.00
12801;BME280;6464;42.494;27.470;2022-08-14T08:58:01;100711.59;;;29.22;100.00
12801;BME280;6464;42.494;27.470;2022-08-14T09:00:30;100673.72;;;28.73;100.00
12801;BME280;6464;42.494;27.470;2022-08-14T09:03:01;100664.59;;;29.11;100.00
12801;BME280;6464;42.494;27.470;2022-08-14T09:05:30;100673.19;;;29.34;100.00
12801;BME280;6464;42.494;27.470;2022-08-14T09:08:11;100687.66;;;29.62;100.00
12801;BME280;6464;42.494;27.470;2022-08-14T09:10:40;100710.44;;;30.42;100.00
12801;BME280;6464;42.494;27.470;2022-08-14T09:13:08;100708.69;;;30.77;100.00
12801;BME280;6464;42.494;27.470;2022-08-14T09:15:38;100700.34;;;31.05;100.00
12801;BME280;6464;42.494;27.470;2022-08-14T09:18:05;100706.22;;;31.52;100.00
12801;BME280;6464;42.494;27.470;2022-08-14T09:20:33;100678.03;;;31.01;100.00
12801;BME280;6464;42.494;27.470;2022-08-14T09:23:02;100705.19;;;31.19;100.00
12801;BME280;6464;42.494;27.470;2022-08-14T09:25:30;100685.22;;;30.58;100.00
12801;BME280;6464;42.494;27.470;2022-08-14T09:27:59;100672.81;;;30.20;100.00
12801;BME280;6464;42.494;27.470;2022-08-14T09:30:26;100649.78;;;29.61;100.00
12801;BME280;6464;42.494;27.470;2022-08-14T09:33:19;100644.38;;;29.79;100.00
12801;BME280;6464;42.494;27.470;2022-08-14T09:36:05;100654.75;;;29.83;100.00
12801;BME280;6464;42.494;27.470;2022-08-14T09:38:45;100622.25;;;30.79;100.00
12801;BME280;6464;42.494;27.470;2022-08-14T09:41:27;100674.50;;;31.93;100.00
12801;BME280;6464;42.494;27.470;2022-08-14T09:44:04;100650.97;;;32.33;100.00
12801;BME280;6464;42.494;27.470;2022-08-14T09:46:33;100673.53;;;32.52;100.00
12801;BME280;6464;42.494;27.470;2022-08-14T09:49:02;100621.84;;;32.26;100.00
12801;BME280;6464;42.494;27.470;2022-08-14T09:51:31;100645.16;;;32.93;100.00
12801;BME280;6464;42.494;27.470;2022-08-14T09:54:02;100673.28;;;33.49;100.00
12801;BME280;6464;42.494;27.470;2022-08-14T09:56:42;100679.59;;;33.81;100.00
12801;BME280;6464;42.494;27.470;2022-08-14T09:59:14;100670.06;;;33.77;100.00
12801;BME280;6464;42.494;27.470;2022-08-14T10:01:43;100684.38;;;34.56;100.00
12801;BME280;6464;42.494;27.470;2022-08-14T10:04:17;100661.31;;;34.50;100.00
12801;BME280;6464;42.494;27.470;2022-08-14T10:06:45;100691.66;;;35.16;100.00
12801;BME280;6464;42.494;27.470;2022-08-14T10:09:12;100682.50;;;34.86;100.00
12801;BME280;6464;42.494;27.470;2022-08-14T10:11:40;100677.78;;;34.80;100.00
12801;BME280;6464;42.494;27.470;2022-08-14T10:14:14;100611.13;;;33.89;100.00
12801;BME280;6464;42.494;27.470;2022-08-14T10:16:44;100649.91;;;34.24;100.00
12801;BME280;6464;42.494;27.470;2022-08-14T10:19:13;100662.03;;;34.44;100.00
12801;BME280;6464;42.494;27.470;2022-08-14T10:21:41;100648.31;;;34.30;100.00
12801;BME280;6464;42.494;27.470;2022-08-14T10:24:23;100636.13;;;34.32;100.00
12801;BME280;6464;42.494;27.470;2022-08-14T10:26:55;100648.13;;;34.69;100.00
12801;BME280;6464;42.494;27.470;2022-08-14T10:29:32;100512.25;;;33.78;100.00
12801;BME280;6464;42.494;27.470;2022-08-14T10:32:00;100654.41;;;35.22;100.00
12801;BME280;6464;42.494;27.470;2022-08-14T10:34:35;100595.31;;;34.90;100.00
12801;BME280;6464;42.494;27.470;2022-08-14T10:37:05;100609.72;;;35.07;100.00
12801;BME280;6464;42.494;27.470;2022-08-14T10:39:34;100580.41;;;34.63;100.00
12801;BME280;6464;42.494;27.470;2022-08-14T10:42:04;100575.78;;;34.78;100.00
12801;BME280;6464;42.494;27.470;2022-08-14T10:44:35;100652.81;;;35.13;100.00
12801;BME280;6464;42.494;27.470;2022-08-14T10:47:07;100582.78;;;33.90;100.00
12801;BME280;6464;42.494;27.470;2022-08-14T10:49:42;100488.69;;;34.29;100.00
12801;BME280;6464;42.494;27.470;2022-08-14T10:52:21;100506.94;;;33.99;100.00
12801;BME280;6464;42.494;27.470;2022-08-14T10:54:50;100630.75;;;35.50;100.00
12801;BME280;6464;42.494;27.470;2022-08-14T10:57:19;100497.84;;;34.21;100.00
12801;BME280;6464;42.494;27.470;2022-08-14T10:59:54;100615.78;;;35.02;100.00
12801;BME280;6464;42.494;27.470;2022-08-14T11:02:27;100525.41;;;34.35;100.00
12801;BME280;6464;42.494;27.470;2022-08-14T11:05:05;100548.75;;;34.75;100.00
12801;BME280;6464;42.494;27.470;2022-08-14T11:07:55;100611.19;;;34.65;100.00
12801;BME280;6464;42.494;27.470;2022-08-14T11:10:37;100538.78;;;34.53;100.00
12801;BME280;6464;42.494;27.470;2022-08-14T11:13:05;100497.25;;;34.11;100.00
12801;BME280;6464;42.494;27.470;2022-08-14T11:15:35;100477.28;;;33.27;100.00
12801;BME280;6464;42.494;27.470;2022-08-14T11:18:03;100564.97;;;33.40;100.00
12801;BME280;6464;42.494;27.470;2022-08-14T11:20:50;100546.59;;;33.26;100.00
12801;BME280;6464;42.494;27.470;2022-08-14T11:23:20;100505.47;;;32.88;100.00
12801;BME280;6464;42.494;27.470;2022-08-14T11:25:48;100520.44;;;32.61;100.00
12801;BME280;6464;42.494;27.470;2022-08-14T11:28:19;100436.19;;;31.94;100.00
12801;BME280;6464;42.494;27.470;2022-08-14T11:30:50;100565.25;;;32.83;100.00
12801;BME280;6464;42.494;27.470;2022-08-14T11:33:21;100527.78;;;32.61;100.00
12801;BME280;6464;42.494;27.470;2022-08-14T11:35:49;100460.72;;;31.70;100.00
12801;BME280;6464;42.494;27.470;2022-08-14T11:38:17;100525.47;;;32.81;100.00
12801;BME280;6464;42.494;27.470;2022-08-14T11:40:46;100553.44;;;33.61;100.00
12801;BME280;6464;42.494;27.470;2022-08-14T11:43:14;100441.53;;;33.06;100.00
12801;BME280;6464;42.494;27.470;2022-08-14T11:45:45;100419.78;;;32.89;100.00
12801;BME280;6464;42.494;27.470;2022-08-14T11:48:16;100465.00;;;33.23;100.00
12801;BME280;6464;42.494;27.470;2022-08-14T11:50:45;100518.94;;;34.50;100.00
12801;BME280;6464;42.494;27.470;2022-08-14T11:53:22;100449.63;;;33.45;100.00
12801;BME280;6464;42.494;27.470;2022-08-14T11:55:56;100496.25;;;34.57;100.00
12801;BME280;6464;42.494;27.470;2022-08-14T11:58:28;100465.00;;;34.36;100.00
12801;BME280;6464;42.494;27.470;2022-08-14T12:00:57;100490.09;;;34.84;100.00
12801;BME280;6464;42.494;27.470;2022-08-14T12:03:39;100495.50;;;34.33;100.00
12801;BME280;6464;42.494;27.470;2022-08-14T12:06:07;100506.78;;;33.32;100.00
12801;BME280;6464;42.494;27.470;2022-08-14T12:08:36;100343.50;;;31.70;100.00
12801;BME280;6464;42.494;27.470;2022-08-14T12:11:05;100476.41;;;31.68;100.00
12801;BME280;6464;42.494;27.470;2022-08-14T12:13:33;100472.13;;;31.33;100.00
12801;BME280;6464;42.494;27.470;2022-08-14T12:16:03;100463.50;;;30.87;100.00
12801;BME280;6464;42.494;27.470;2022-08-14T12:18:33;100391.47;;;29.96;100.00
12801;BME280;6464;42.494;27.470;2022-08-14T12:21:12;100419.25;;;29.82;100.00
12801;BME280;6464;42.494;27.470;2022-08-14T12:23:39;100444.53;;;29.75;100.00
12801;BME280;6464;42.494;27.470;2022-08-14T12:26:08;100414.56;;;29.49;100.00
12801;BME280;6464;42.494;27.470;2022-08-14T12:28:36;100436.41;;;29.57;100.00
12801;BME280;6464;42.494;27.470;2022-08-14T12:31:12;100463.50;;;29.66;100.00
12801;BME280;6464;42.494;27.470;2022-08-14T12:33:54;100437.88;;;29.33;100.00
12801;BME280;6464;42.494;27.470;2022-08-14T12:36:23;100468.88;;;29.40;100.00
12801;BME280;6464;42.494;27.470;2022-08-14T12:38:52;100462.31;;;29.15;100.00
12801;BME280;6464;42.494;27.470;2022-08-14T12:41:22;100436.69;;;28.82;100.00
12801;BME280;6464;42.494;27.470;2022-08-14T12:43:52;100451.78;;;28.94;100.00
12801;BME280;6464;42.494;27.470;2022-08-14T12:46:26;100426.75;;;28.73;100.00
12801;BME280;6464;42.494;27.470;2022-08-14T12:48:54;100465.28;;;29.04;100.00
12801;BME280;6464;42.494;27.470;2022-08-14T12:51:24;100469.28;;;29.00;100.00
12801;BME280;6464;42.494;27.470;2022-08-14T12:53:52;100463.97;;;29.08;100.00
12801;BME280;6464;42.494;27.470;2022-08-14T12:56:20;100453.88;;;28.73;100.00
12801;BME280;6464;42.494;27.470;2022-08-14T12:58:51;100470.06;;;28.92;100.00
12801;BME280;6464;42.494;27.470;2022-08-14T13:01:20;100472.56;;;29.04;100.00
12801;BME280;6464;42.494;27.470;2022-08-14T13:03:48;100467.69;;;28.80;100.00
12801;BME280;6464;42.494;27.470;2022-08-14T13:06:17;100465.59;;;28.74;100.00
12801;BME280;6464;42.494;27.470;2022-08-14T13:08:49;100454.13;;;28.80;100.00
12801;BME280;6464;42.494;27.470;2022-08-14T13:11:18;100442.75;;;28.49;100.00
12801;BME280;6464;42.494;27.470;2022-08-14T13:13:46;100454.47;;;28.67;100.00
12801;BME280;6464;42.494;27.470;2022-08-14T13:16:13;100444.13;;;28.80;100.00
12801;BME280;6464;42.494;27.470;2022-08-14T13:18:41;100397.81;;;28.36;100.00
12801;BME280;6464;42.494;27.470;2022-08-14T13:21:10;100409.75;;;28.53;100.00
12801;BME280;6464;42.494;27.470;2022-08-14T13:23:40;100438.13;;;28.59;100.00
12801;BME280;6464;42.494;27.470;2022-08-14T13:26:09;100442.81;;;28.57;100.00
12801;BME280;6464;42.494;27.470;2022-08-14T13:28:39;100443.09;;;28.36;100.00
12801;BME280;6464;42.494;27.470;2022-08-14T13:31:08;100451.63;;;28.31;100.00
12801;BME280;6464;42.494;27.470;2022-08-14T13:33:38;100455.56;;;28.19;100.00
12801;BME280;6464;42.494;27.470;2022-08-14T13:36:06;100438.69;;;28.25;100.00
12801;BME280;6464;42.494;27.470;2022-08-14T13:38:34;100456.31;;;28.49;100.00
12801;BME280;6464;42.494;27.470;2022-08-14T13:41:02;100460.84;;;28.58;100.00
12801;BME280;6464;42.494;27.470;2022-08-14T13:43:32;100462.94;;;28.64;100.00
12801;BME280;6464;42.494;27.470;2022-08-14T13:45:59;100461.63;;;28.68;100.00
12801;BME280;6464;42.494;27.470;2022-08-14T13:48:27;100459.59;;;28.70;100.00
12801;BME280;6464;42.494;27.470;2022-08-14T13:50:56;100454.63;;;28.65;100.00
12801;BME280;6464;42.494;27.470;2022-08-14T13:53:24;100450.66;;;28.60;100.00
12801;BME280;6464;42.494;27.470;2022-08-14T13:55:52;100440.78;;;28.68;100.00
12801;BME280;6464;42.494;27.470;2022-08-14T13:58:21;100426.94;;;28.62;100.00
12801;BME280;6464;42.494;27.470;2022-08-14T14:00:51;100449.03;;;28.67;100.00
12801;BME280;6464;42.494;27.470;2022-08-14T14:03:19;100457.97;;;28.59;100.00
12801;BME280;6464;42.494;27.470;2022-08-14T14:05:49;100464.53;;;28.57;100.00
12801;BME280;6464;42.494;27.470;2022-08-14T14:08:18;100470.41;;;28.52;100.00
12801;BME280;6464;42.494;27.470;2022-08-14T14:10:47;100487.97;;;28.58;100.00
12801;BME280;6464;42.494;27.470;2022-08-14T14:13:16;100475.19;;;28.40;100.00
12801;BME280;6464;42.494;27.470;2022-08-14T14:15:45;100477.66;;;28.34;100.00
12801;BME280;6464;42.494;27.470;2022-08-14T14:18:15;100517.88;;;28.38;100.00
12801;BME280;6464;42.494;27.470;2022-08-14T14:20:43;100482.28;;;27.85;100.00
12801;BME280;6464;42.494;27.470;2022-08-14T14:23:12;100474.16;;;27.65;100.00
12801;BME280;6464;42.494;27.470;2022-08-14T14:25:41;100470.06;;;27.52;100.00
12801;BME280;6464;42.494;27.470;2022-08-14T14:28:12;100455.38;;;27.35;100.00
12801;BME280;6464;42.494;27.470;2022-08-14T14:30:44;100473.22;;;27.47;100.00
12801;BME280;6464;42.494;27.470;2022-08-14T14:33:13;100445.41;;;27.16;100.00
12801;BME280;6464;42.494;27.470;2022-08-14T14:35:44;100494.28;;;27.34;100.00
12801;BME280;6464;42.494;27.470;2022-08-14T14:38:13;100435.53;;;26.96;100.00
12801;BME280;6464;42.494;27.470;2022-08-14T14:40:43;100416.00;;;26.82;100.00
12801;BME280;6464;42.494;27.470;2022-08-14T14:43:12;100488.13;;;27.12;100.00
12801;BME280;6464;42.494;27.470;2022-08-14T14:45:42;100406.66;;;26.15;100.00
12801;BME280;6464;42.494;27.470;2022-08-14T14:48:10;100444.13;;;26.30;100.00
12801;BME280;6464;42.494;27.470;2022-08-14T14:50:37;100358.91;;;25.85;100.00
12801;BME280;6464;42.494;27.470;2022-08-14T14:53:06;100396.56;;;26.08;100.00
12801;BME280;6464;42.494;27.470;2022-08-14T14:55:35;100417.88;;;26.42;100.00
12801;BME280;6464;42.494;27.470;2022-08-14T14:58:07;100404.97;;;25.63;100.00
12801;BME280;6464;42.494;27.470;2022-08-14T15:00:34;100460.53;;;25.45;100.00
12801;BME280;6464;42.494;27.470;2022-08-14T15:03:01;100405.28;;;24.96;100.00
12801;BME280;6464;42.494;27.470;2022-08-14T15:05:28;100417.53;;;24.88;100.00
12801;BME280;6464;42.494;27.470;2022-08-14T15:07:57;100351.97;;;24.33;100.00
12801;BME280;6464;42.494;27.470;2022-08-14T15:10:26;100416.66;;;24.45;100.00
12801;BME280;6464;42.494;27.470;2022-08-14T15:12:53;100382.25;;;24.15;100.00
12801;BME280;6464;42.494;27.470;2022-08-14T15:15:32;100344.81;;;23.89;100.00
12801;BME280;6464;42.494;27.470;2022-08-14T15:18:00;100352.41;;;23.84;100.00
12801;BME280;6464;42.494;27.470;2022-08-14T15:20:28;100330.59;;;23.65;100.00
12801;BME280;6464;42.494;27.470;2022-08-14T15:22:55;100406.38;;;23.94;100.00
12801;BME280;6464;42.494;27.470;2022-08-14T15:25:25;100388.09;;;23.64;100.00
12801;BME280;6464;42.494;27.470;2022-08-14T15:36:46;100306.44;;;23.41;100.00
12801;BME280;6464;42.494;27.470;2022-08-14T15:39:33;100322.84;;;23.49;100.00
12801;BME280;6464;42.494;27.470;2022-08-14T15:42:01;100323.31;;;23.54;100.00
12801;BME280;6464;42.494;27.470;2022-08-14T15:47:17;100290.78;;;23.46;100.00
12801;BME280;6464;42.494;27.470;2022-08-14T15:49:48;100325.69;;;23.92;100.00
12801;BME280;6464;42.494;27.470;2022-08-14T15:52:20;100347.38;;;24.13;100.00
12801;BME280;6464;42.494;27.470;2022-08-14T15:54:47;100333.50;;;24.06;100.00
12801;BME280;6464;42.494;27.470;2022-08-14T15:57:15;100341.50;;;24.08;100.00
12801;BME280;6464;42.494;27.470;2022-08-14T15:59:44;100285.34;;;23.70;100.00
12801;BME280;6464;42.494;27.470;2022-08-14T16:02:29;100266.94;;;23.64;100.00
12801;BME280;6464;42.494;27.470;2022-08-14T16:04:56;100283.59;;;23.69;100.00
12801;BME280;6464;42.494;27.470;2022-08-14T16:07:25;100324.34;;;23.64;100.00
12801;BME280;6464;42.494;27.470;2022-08-14T16:09:52;100321.25;;;23.57;100.00
12801;BME280;6464;42.494;27.470;2022-08-14T16:12:19;100366.22;;;23.79;100.00
12801;BME280;6464;42.494;27.470;2022-08-14T16:14:46;100353.50;;;23.70;100.00
12801;BME280;6464;42.494;27.470;2022-08-14T16:17:13;100347.00;;;23.73;100.00
12801;BME280;6464;42.494;27.470;2022-08-14T16:19:40;100351.66;;;23.71;100.00
12801;BME280;6464;42.494;27.470;2022-08-14T16:22:12;100335.69;;;23.56;100.00
12801;BME280;6464;42.494;27.470;2022-08-14T16:24:42;100337.28;;;23.59;100.00
12801;BME280;6464;42.494;27.470;2022-08-14T16:27:10;100347.34;;;23.68;100.00
12801;BME280;6464;42.494;27.470;2022-08-14T16:29:39;100303.75;;;23.41;100.00
12801;BME280;6464;42.494;27.470;2022-08-14T16:32:09;100285.88;;;23.28;100.00
12801;BME280;6464;42.494;27.470;2022-08-14T16:34:38;100297.63;;;23.39;100.00
12801;BME280;6464;42.494;27.470;2022-08-14T16:37:09;100312.44;;;23.44;100.00
12801;BME280;6464;42.494;27.470;2022-08-14T16:39:38;100291.63;;;23.35;100.00
12801;BME280;6464;42.494;27.470;2022-08-14T16:42:08;100289.91;;;23.23;100.00
12801;BME280;6464;42.494;27.470;2022-08-14T16:44:36;100266.06;;;23.29;100.00
12801;BME280;6464;42.494;27.470;2022-08-14T16:47:05;100270.22;;;23.33;100.00
12801;BME280;6464;42.494;27.470;2022-08-14T16:49:34;100289.69;;;23.26;100.00
12801;BME280;6464;42.494;27.470;2022-08-14T16:52:03;100313.59;;;23.06;100.00
12801;BME280;6464;42.494;27.470;2022-08-14T16:54:31;100277.06;;;22.56;100.00
12801;BME280;6464;42.494;27.470;2022-08-14T16:57:23;100202.91;;;22.18;100.00
12801;BME280;6464;42.494;27.470;2022-08-14T16:59:59;100160.72;;;21.84;100.00
12801;BME280;6464;42.494;27.470;2022-08-14T17:02:44;100139.53;;;21.68;100.00
12801;BME280;6464;42.494;27.470;2022-08-14T17:05:19;100126.63;;;21.73;100.00
12801;BME280;6464;42.494;27.470;2022-08-14T17:08:07;100065.47;;;21.65;100.00
12801;BME280;6464;42.494;27.470;2022-08-14T17:10:38;100034.59;;;21.60;100.00
12801;BME280;6464;42.494;27.470;2022-08-14T17:13:25;100069.47;;;21.84;100.00
12801;BME280;6464;42.494;27.470;2022-08-14T17:16:06;100062.25;;;21.84;100.00
12801;BME280;6464;42.494;27.470;2022-08-14T17:18:39;100065.78;;;21.85;100.00
12801;BME280;6464;42.494;27.470;2022-08-14T17:21:20;100069.59;;;21.82;100.00
12801;BME280;6464;42.494;27.470;2022-08-14T17:23:49;100132.63;;;22.00;100.00
12801;BME280;6464;42.494;27.470;2022-08-14T17:26:36;100134.53;;;22.11;100.00
12801;BME280;6464;42.494;27.470;2022-08-14T17:29:35;100123.81;;;21.74;100.00
12801;BME280;6464;42.494;27.470;2022-08-14T17:38:25;100194.28;;;21.89;100.00
12801;BME280;6464;42.494;27.470;2022-08-14T18:05:56;100178.78;;;21.45;100.00
12801;BME280;6464;42.494;27.470;2022-08-14T18:08:39;100130.19;;;21.24;100.00
12801;BME280;6464;42.494;27.470;2022-08-14T18:11:10;100121.28;;;21.23;100.00
12801;BME280;6464;42.494;27.470;2022-08-14T18:13:48;100145.59;;;21.46;100.00
12801;BME280;6464;42.494;27.470;2022-08-14T18:35:07;100140.88;;;21.49;100.00
12801;BME280;6464;42.494;27.470;2022-08-14T18:37:52;100066.00;;;20.97;100.00
12801;BME280;6464;42.494;27.470;2022-08-14T18:47:20;100118.56;;;21.49;100.00
12801;BME280;6464;42.494;27.470;2022-08-14T18:59:52;100091.78;;;21.23;100.00
12801;BME280;6464;42.494;27.470;2022-08-14T19:16:51;100137.97;;;21.52;100.00
12801;BME280;6464;42.494;27.470;2022-08-14T20:08:59;100078.56;;;20.84;100.00
12801;BME280;6464;42.494;27.470;2022-08-14T20:11:33;100140.06;;;21.23;100.00
12801;BME280;6464;42.494;27.470;2022-08-14T20:14:22;100072.66;;;20.91;100.00
12801;BME280;6464;42.494;27.470;2022-08-14T20:19:50;100031.41;;;20.68;100.00
12801;BME280;6464;42.494;27.470;2022-08-14T20:22:39;100022.53;;;20.68;100.00
12801;BME280;6464;42.494;27.470;2022-08-14T20:37:29;100007.16;;;20.83;100.00
12801;BME280;6464;42.494;27.470;2022-08-14T20:40:25;99931.25;;;20.58;100.00
12801;BME280;6464;42.494;27.470;2022-08-14T20:51:21;100022.59;;;20.92;100.00
12801;BME280;6464;42.494;27.470;2022-08-14T21:10:23;100081.56;;;20.92;100.00
12801;BME280;6464;42.494;27.470;2022-08-14T21:18:57;99941.50;;;20.02;100.00
